sensor_id;sensor_type;location;lat;lon;timestamp;P1;durP1;ratioP1;P2;durP2;ratioP2
23702;SDS011;12030;50.376;8.762;2023-03-13T00:01:09;12.27;;;3.77;;
23702;SDS011;12030;50.376;8.762;2023-03-13T00:03:37;17.07;;;4.20;;
23702;SDS011;12030;50.376;8.762;2023-03-13T00:06:03;17.57;;;4.20;;
23702;SDS011;12030;50.376;8.762;2023-03-13T00:08:28;17.10;;;4.13;;
23702;SDS011;12030;50.376;8.762;2023-03-13T00:10:54;17.27;;;4.27;;
23702;SDS011;12030;50.376;8.762;2023-03-13T00:13:20;18.50;;;3.97;;
23702;SDS011;12030;50.376;8.762;2023-03-13T00:15:45;23.47;;;5.20;;
23702;SDS011;12030;50.376;8.762;2023-03-13T00:18:11;14.27;;;4.17;;
23702;SDS011;12030;50.376;8.762;2023-03-13T00:20:37;18.27;;;3.93;;
23702;SDS011;12030;50.376;8.762;2023-03-13T00:23:02;17.33;;;4.20;;
23702;SDS011;12030;50.376;8.762;2023-03-13T00:25:28;17.03;;;3.90;;
23702;SDS011;12030;50.376;8.762;2023-03-13T00:27:53;17.83;;;4.00;;
23702;SDS011;12030;50.376;8.762;2023-03-13T00:30:19;16.43;;;3.60;;
23702;SDS011;12030;50.376;8.762;2023-03-13T00:32:44;12.77;;;3.60;;
23702;SDS011;12030;50.376;8.762;2023-03-13T00:35:11;18.20;;;4.13;;
23702;SDS011;12030;50.376;8.762;2023-03-13T00:37:37;17.97;;;4.33;;
23702;SDS011;12030;50.376;8.762;2023-03-13T00:40:03;18.83;;;4.03;;
23702;SDS011;12030;50.376;8.762;2023-03-13T00:42:30;18.10;;;3.70;;
23702;SDS011;12030;50.376;8.762;2023-03-13T00:44:55;14.83;;;4.50;;
23702;SDS011;12030;50.376;8.762;2023-03-13T00:47:21;16.77;;;4.03;;
23702;SDS011;12030;50.376;8.762;2023-03-13T00:49:46;12.80;;;3.97;;
23702;SDS011;12030;50.376;8.762;2023-03-13T00:52:12;17.63;;;4.10;;
23702;SDS011;12030;50.376;8.762;2023-03-13T00:54:37;14.73;;;4.27;;
23702;SDS011;12030;50.376;8.762;2023-03-13T00:57:03;20.57;;;4.03;;
23702;SDS011;12030;50.376;8.762;2023-03-13T00:59:29;16.33;;;3.80;;
23702;SDS011;12030;50.376;8.762;2023-03-13T01:01:54;18.67;;;4.07;;
23702;SDS011;12030;50.376;8.762;2023-03-13T01:04:20;14.00;;;3.90;;
23702;SDS011;12030;50.376;8.762;2023-03-13T01:06:45;17.43;;;4.23;;
23702;SDS011;12030;50.376;8.762;2023-03-13T01:09:12;14.23;;;3.73;;
23702;SDS011;12030;50.376;8.762;2023-03-13T01:11:39;10.37;;;3.27;;
23702;SDS011;12030;50.376;8.762;2023-03-13T01:14:07;14.00;;;4.00;;
23702;SDS011;12030;50.376;8.762;2023-03-13T01:16:36;12.80;;;3.73;;
23702;SDS011;12030;50.376;8.762;2023-03-13T01:19:03;16.83;;;3.53;;
23702;SDS011;12030;50.376;8.762;2023-03-13T01:21:30;11.13;;;3.40;;
23702;SDS011;12030;50.376;8.762;2023-03-13T01:23:56;13.50;;;4.27;;
23702;SDS011;12030;50.376;8.762;2023-03-13T01:26:22;14.63;;;3.83;;
23702;SDS011;12030;50.376;8.762;2023-03-13T01:28:49;17.43;;;3.77;;
23702;SDS011;12030;50.376;8.762;2023-03-13T01:33:42;16.70;;;4.13;;
23702;SDS011;12030;50.376;8.762;2023-03-13T01:36:09;15.67;;;3.80;;
23702;SDS011;12030;50.376;8.762;2023-03-13T01:38:35;14.67;;;3.47;;
23702;SDS011;12030;50.376;8.762;2023-03-13T01:41:02;15.93;;;4.20;;
23702;SDS011;12030;50.376;8.762;2023-03-13T01:43:29;15.37;;;4.07;;
23702;SDS011;12030;50.376;8.762;2023-03-13T01:48:45;12.73;;;3.57;;
23702;SDS011;12030;50.376;8.762;2023-03-13T01:51:13;14.93;;;3.77;;
23702;SDS011;12030;50.376;8.762;2023-03-13T01:54:13;15.33;;;3.77;;
23702;SDS011;12030;50.376;8.762;2023-03-13T01:56:48;18.17;;;3.97;;
23702;SDS011;12030;50.376;8.762;2023-03-13T01:59:26;16.13;;;3.63;;
23702;SDS011;12030;50.376;8.762;2023-03-13T02:01:56;14.03;;;3.90;;
23702;SDS011;12030;50.376;8.762;2023-03-13T02:04:25;14.17;;;3.43;;
23702;SDS011;12030;50.376;8.762;2023-03-13T02:06:53;15.33;;;4.00;;
23702;SDS011;12030;50.376;8.762;2023-03-13T02:09:23;13.47;;;3.23;;
23702;SDS011;12030;50.376;8.762;2023-03-13T02:11:55;13.83;;;3.63;;
23702;SDS011;12030;50.376;8.762;2023-03-13T02:14:40;15.20;;;3.80;;
23702;SDS011;12030;50.376;8.762;2023-03-13T02:17:08;13.53;;;3.00;;
23702;SDS011;12030;50.376;8.762;2023-03-13T02:19:37;14.73;;;3.87;;
23702;SDS011;12030;50.376;8.762;2023-03-13T02:22:29;11.53;;;3.57;;
23702;SDS011;12030;50.376;8.762;2023-03-13T02:25:11;13.93;;;3.50;;
23702;SDS011;12030;50.376;8.762;2023-03-13T02:27:39;15.23;;;3.57;;
23702;SDS011;12030;50.376;8.762;2023-03-13T02:30:07;16.73;;;4.27;;
23702;SDS011;12030;50.376;8.762;2023-03-13T02:32:34;16.00;;;4.10;;
23702;SDS011;12030;50.376;8.762;2023-03-13T02:35:01;13.27;;;3.83;;
23702;SDS011;12030;50.376;8.762;2023-03-13T02:37:31;13.27;;;3.67;;
23702;SDS011;12030;50.376;8.762;2023-03-13T02:39:58;14.17;;;3.40;;
23702;SDS011;12030;50.376;8.762;2023-03-13T02:42:26;16.90;;;4.67;;
23702;SDS011;12030;50.376;8.762;2023-03-13T02:44:52;14.97;;;3.53;;
23702;SDS011;12030;50.376;8.762;2023-03-13T02:47:19;11.93;;;3.53;;
23702;SDS011;12030;50.376;8.762;2023-03-13T02:49:46;16.47;;;3.60;;
23702;SDS011;12030;50.376;8.762;2023-03-13T02:52:33;19.40;;;3.77;;
23702;SDS011;12030;50.376;8.762;2023-03-13T02:55:04;14.63;;;3.57;;
23702;SDS011;12030;50.376;8.762;2023-03-13T02:57:34;17.20;;;4.03;;
23702;SDS011;12030;50.376;8.762;2023-03-13T02:59:59;15.50;;;4.40;;
23702;SDS011;12030;50.376;8.762;2023-03-13T03:02:25;13.97;;;3.87;;
23702;SDS011;12030;50.376;8.762;2023-03-13T03:04:50;17.40;;;4.17;;
23702;SDS011;12030;50.376;8.762;2023-03-13T03:07:16;14.90;;;3.83;;
23702;SDS011;12030;50.376;8.762;2023-03-13T03:09:41;14.07;;;4.20;;
23702;SDS011;12030;50.376;8.762;2023-03-13T03:12:07;14.50;;;3.90;;
23702;SDS011;12030;50.376;8.762;2023-03-13T03:14:33;14.17;;;3.80;;
23702;SDS011;12030;50.376;8.762;2023-03-13T03:16:58;12.03;;;3.53;;
23702;SDS011;12030;50.376;8.762;2023-03-13T03:19:24;17.57;;;4.00;;
23702;SDS011;12030;50.376;8.762;2023-03-13T03:21:49;11.90;;;3.50;;
23702;SDS011;12030;50.376;8.762;2023-03-13T03:24:15;15.63;;;3.90;;
23702;SDS011;12030;50.376;8.762;2023-03-13T03:26:40;9.93;;;3.33;;
23702;SDS011;12030;50.376;8.762;2023-03-13T03:29:06;15.77;;;3.87;;
23702;SDS011;12030;50.376;8.762;2023-03-13T03:31:32;20.80;;;4.23;;
23702;SDS011;12030;50.376;8.762;2023-03-13T03:33:58;14.17;;;3.73;;
23702;SDS011;12030;50.376;8.762;2023-03-13T03:36:23;13.57;;;3.70;;
23702;SDS011;12030;50.376;8.762;2023-03-13T03:38:49;12.77;;;3.83;;
23702;SDS011;12030;50.376;8.762;2023-03-13T03:41:15;15.00;;;3.23;;
23702;SDS011;12030;50.376;8.762;2023-03-13T03:43:41;16.30;;;4.50;;
23702;SDS011;12030;50.376;8.762;2023-03-13T03:46:07;14.50;;;2.97;;
23702;SDS011;12030;50.376;8.762;2023-03-13T03:48:33;15.23;;;3.97;;
23702;SDS011;12030;50.376;8.762;2023-03-13T03:50:59;16.70;;;4.03;;
23702;SDS011;12030;50.376;8.762;2023-03-13T03:53:24;14.43;;;3.33;;
23702;SDS011;12030;50.376;8.762;2023-03-13T03:55:50;13.50;;;3.60;;
23702;SDS011;12030;50.376;8.762;2023-03-13T03:58:15;14.63;;;3.90;;
23702;SDS011;12030;50.376;8.762;2023-03-13T04:00:42;14.23;;;3.90;;
23702;SDS011;12030;50.376;8.762;2023-03-13T04:03:08;14.80;;;3.90;;
23702;SDS011;12030;50.376;8.762;2023-03-13T04:05:34;16.43;;;3.77;;
23702;SDS011;12030;50.376;8.762;2023-03-13T04:07:59;13.97;;;3.60;;
23702;SDS011;12030;50.376;8.762;2023-03-13T04:10:25;16.40;;;3.73;;
23702;SDS011;12030;50.376;8.762;2023-03-13T04:12:50;14.00;;;3.20;;
23702;SDS011;12030;50.376;8.762;2023-03-13T04:15:16;13.57;;;3.67;;
23702;SDS011;12030;50.376;8.762;2023-03-13T04:17:41;14.17;;;3.73;;
23702;SDS011;12030;50.376;8.762;2023-03-13T04:20:07;14.13;;;3.77;;
23702;SDS011;12030;50.376;8.762;2023-03-13T04:22:35;15.60;;;3.40;;
23702;SDS011;12030;50.376;8.762;2023-03-13T04:25:00;12.17;;;3.67;;
23702;SDS011;12030;50.376;8.762;2023-03-13T04:27:26;12.77;;;3.27;;
23702;SDS011;12030;50.376;8.762;2023-03-13T04:29:51;17.40;;;4.03;;
23702;SDS011;12030;50.376;8.762;2023-03-13T04:32:17;13.37;;;4.00;;
23702;SDS011;12030;50.376;8.762;2023-03-13T04:34:42;15.93;;;3.90;;
23702;SDS011;12030;50.376;8.762;2023-03-13T04:37:08;15.70;;;3.57;;
23702;SDS011;12030;50.376;8.762;2023-03-13T04:39:33;15.60;;;4.07;;
23702;SDS011;12030;50.376;8.762;2023-03-13T04:41:59;14.87;;;4.13;;
23702;SDS011;12030;50.376;8.762;2023-03-13T04:44:24;15.87;;;3.33;;
23702;SDS011;12030;50.376;8.762;2023-03-13T04:46:50;9.23;;;3.30;;
23702;SDS011;12030;50.376;8.762;2023-03-13T04:49:15;16.47;;;3.57;;
23702;SDS011;12030;50.376;8.762;2023-03-13T04:51:41;11.27;;;3.37;;
23702;SDS011;12030;50.376;8.762;2023-03-13T04:54:08;11.00;;;3.33;;
23702;SDS011;12030;50.376;8.762;2023-03-13T04:56:34;16.17;;;3.80;;
23702;SDS011;12030;50.376;8.762;2023-03-13T04:59:00;14.70;;;4.10;;
23702;SDS011;12030;50.376;8.762;2023-03-13T05:01:26;9.43;;;3.80;;
23702;SDS011;12030;50.376;8.762;2023-03-13T05:03:51;15.33;;;3.97;;
23702;SDS011;12030;50.376;8.762;2023-03-13T05:06:17;18.53;;;4.53;;
23702;SDS011;12030;50.376;8.762;2023-03-13T05:08:43;11.10;;;3.53;;
23702;SDS011;12030;50.376;8.762;2023-03-13T05:11:08;12.40;;;3.50;;
23702;SDS011;12030;50.376;8.762;2023-03-13T05:13:35;13.70;;;3.87;;
23702;SDS011;12030;50.376;8.762;2023-03-13T05:16:00;15.90;;;3.77;;
23702;SDS011;12030;50.376;8.762;2023-03-13T05:18:26;11.80;;;3.73;;
23702;SDS011;12030;50.376;8.762;2023-03-13T05:20:52;17.30;;;4.10;;
23702;SDS011;12030;50.376;8.762;2023-03-13T05:23:17;19.37;;;4.20;;
23702;SDS011;12030;50.376;8.762;2023-03-13T05:25:43;16.73;;;4.20;;
23702;SDS011;12030;50.376;8.762;2023-03-13T05:28:08;16.80;;;3.70;;
23702;SDS011;12030;50.376;8.762;2023-03-13T05:30:34;17.13;;;4.10;;
23702;SDS011;12030;50.376;8.762;2023-03-13T05:33:00;14.27;;;3.80;;
23702;SDS011;12030;50.376;8.762;2023-03-13T05:35:25;15.67;;;4.03;;
23702;SDS011;12030;50.376;8.762;2023-03-13T05:37:51;13.60;;;4.03;;
23702;SDS011;12030;50.376;8.762;2023-03-13T05:40:16;13.90;;;3.93;;
23702;SDS011;12030;50.376;8.762;2023-03-13T05:42:43;12.47;;;3.57;;
23702;SDS011;12030;50.376;8.762;2023-03-13T05:45:09;10.73;;;3.97;;
23702;SDS011;12030;50.376;8.762;2023-03-13T05:47:35;10.27;;;3.27;;
23702;SDS011;12030;50.376;8.762;2023-03-13T05:50:02;12.13;;;3.83;;
23702;SDS011;12030;50.376;8.762;2023-03-13T05:52:28;12.13;;;3.80;;
23702;SDS011;12030;50.376;8.762;2023-03-13T05:54:54;15.03;;;4.13;;
23702;SDS011;12030;50.376;8.762;2023-03-13T05:57:20;11.47;;;4.17;;
23702;SDS011;12030;50.376;8.762;2023-03-13T05:59:45;11.77;;;4.37;;
23702;SDS011;12030;50.376;8.762;2023-03-13T06:02:11;16.03;;;4.60;;
23702;SDS011;12030;50.376;8.762;2023-03-13T06:04:36;10.83;;;4.37;;
23702;SDS011;12030;50.376;8.762;2023-03-13T06:07:02;12.70;;;4.33;;
23702;SDS011;12030;50.376;8.762;2023-03-13T06:09:27;12.33;;;4.40;;
23702;SDS011;12030;50.376;8.762;2023-03-13T06:11:53;13.47;;;4.63;;
23702;SDS011;12030;50.376;8.762;2023-03-13T06:14:19;12.23;;;4.63;;
23702;SDS011;12030;50.376;8.762;2023-03-13T06:16:44;10.97;;;4.90;;
23702;SDS011;12030;50.376;8.762;2023-03-13T06:19:10;13.53;;;4.60;;
23702;SDS011;12030;50.376;8.762;2023-03-13T06:21:36;13.23;;;4.63;;
23702;SDS011;12030;50.376;8.762;2023-03-13T06:24:02;11.50;;;4.70;;
23702;SDS011;12030;50.376;8.762;2023-03-13T06:26:27;11.57;;;5.50;;
23702;SDS011;12030;50.376;8.762;2023-03-13T06:28:53;10.87;;;4.90;;
23702;SDS011;12030;50.376;8.762;2023-03-13T06:31:18;10.23;;;4.73;;
23702;SDS011;12030;50.376;8.762;2023-03-13T06:33:44;11.90;;;5.63;;
23702;SDS011;12030;50.376;8.762;2023-03-13T06:36:10;7.40;;;5.10;;
23702;SDS011;12030;50.376;8.762;2023-03-13T06:38:35;12.33;;;6.33;;
23702;SDS011;12030;50.376;8.762;2023-03-13T06:41:01;11.03;;;6.53;;
23702;SDS011;12030;50.376;8.762;2023-03-13T06:43:27;9.63;;;6.93;;
23702;SDS011;12030;50.376;8.762;2023-03-13T06:45:52;12.17;;;6.63;;
23702;SDS011;12030;50.376;8.762;2023-03-13T06:48:18;11.10;;;7.00;;
23702;SDS011;12030;50.376;8.762;2023-03-13T06:50:45;12.93;;;6.07;;
23702;SDS011;12030;50.376;8.762;2023-03-13T06:53:15;10.77;;;6.57;;
23702;SDS011;12030;50.376;8.762;2023-03-13T06:55:42;13.47;;;7.20;;
23702;SDS011;12030;50.376;8.762;2023-03-13T06:58:08;10.60;;;6.53;;
23702;SDS011;12030;50.376;8.762;2023-03-13T07:00:33;9.23;;;6.20;;
23702;SDS011;12030;50.376;8.762;2023-03-13T07:02:59;10.10;;;6.20;;
23702;SDS011;12030;50.376;8.762;2023-03-13T07:05:25;9.50;;;6.37;;
23702;SDS011;12030;50.376;8.762;2023-03-13T07:07:50;8.87;;;6.00;;
23702;SDS011;12030;50.376;8.762;2023-03-13T07:10:16;8.03;;;6.13;;
23702;SDS011;12030;50.376;8.762;2023-03-13T07:12:41;7.37;;;6.17;;
23702;SDS011;12030;50.376;8.762;2023-03-13T07:15:08;10.43;;;6.27;;
23702;SDS011;12030;50.376;8.762;2023-03-13T07:17:35;11.10;;;6.53;;
23702;SDS011;12030;50.376;8.762;2023-03-13T07:20:01;9.60;;;6.30;;
23702;SDS011;12030;50.376;8.762;2023-03-13T07:22:29;9.33;;;6.83;;
23702;SDS011;12030;50.376;8.762;2023-03-13T07:24:54;10.23;;;6.90;;
23702;SDS011;12030;50.376;8.762;2023-03-13T07:27:20;8.43;;;7.13;;
23702;SDS011;12030;50.376;8.762;2023-03-13T07:29:46;9.87;;;7.17;;
23702;SDS011;12030;50.376;8.762;2023-03-13T07:32:12;7.77;;;5.90;;
23702;SDS011;12030;50.376;8.762;2023-03-13T07:34:38;6.90;;;5.80;;
23702;SDS011;12030;50.376;8.762;2023-03-13T07:37:03;7.63;;;5.80;;
23702;SDS011;12030;50.376;8.762;2023-03-13T07:39:29;10.33;;;6.00;;
23702;SDS011;12030;50.376;8.762;2023-03-13T07:41:54;8.43;;;5.83;;
23702;SDS011;12030;50.376;8.762;2023-03-13T07:44:20;7.03;;;5.27;;
23702;SDS011;12030;50.376;8.762;2023-03-13T07:46:45;7.20;;;5.60;;
23702;SDS011;12030;50.376;8.762;2023-03-13T07:49:12;6.43;;;5.50;;
23702;SDS011;12030;50.376;8.762;2023-03-13T07:51:38;7.23;;;6.20;;
23702;SDS011;12030;50.376;8.762;2023-03-13T07:54:03;7.00;;;5.27;;
23702;SDS011;12030;50.376;8.762;2023-03-13T07:56:29;8.63;;;5.27;;
23702;SDS011;12030;50.376;8.762;2023-03-13T07:58:55;5.53;;;5.00;;
23702;SDS011;12030;50.376;8.762;2023-03-13T08:01:21;7.17;;;4.83;;
23702;SDS011;12030;50.376;8.762;2023-03-13T08:03:48;7.90;;;4.67;;
23702;SDS011;12030;50.376;8.762;2023-03-13T08:06:15;6.40;;;4.43;;
23702;SDS011;12030;50.376;8.762;2023-03-13T08:08:43;6.90;;;4.73;;
23702;SDS011;12030;50.376;8.762;2023-03-13T08:11:13;5.20;;;4.70;;
23702;SDS011;12030;50.376;8.762;2023-03-13T08:13:40;6.53;;;4.57;;
23702;SDS011;12030;50.376;8.762;2023-03-13T08:16:10;5.07;;;4.43;;
23702;SDS011;12030;50.376;8.762;2023-03-13T08:18:41;6.67;;;4.30;;
23702;SDS011;12030;50.376;8.762;2023-03-13T08:21:10;10.97;;;4.43;;
23702;SDS011;12030;50.376;8.762;2023-03-13T08:23:40;5.97;;;4.10;;
23702;SDS011;12030;50.376;8.762;2023-03-13T08:26:09;4.20;;;3.80;;
23702;SDS011;12030;50.376;8.762;2023-03-13T08:28:37;4.17;;;3.47;;
23702;SDS011;12030;50.376;8.762;2023-03-13T08:33:36;5.23;;;3.40;;
23702;SDS011;12030;50.376;8.762;2023-03-13T08:36:13;4.90;;;3.80;;
23702;SDS011;12030;50.376;8.762;2023-03-13T08:38:39;4.13;;;3.70;;
23702;SDS011;12030;50.376;8.762;2023-03-13T08:41:11;6.57;;;3.80;;
23702;SDS011;12030;50.376;8.762;2023-03-13T08:43:38;4.27;;;3.43;;
23702;SDS011;12030;50.376;8.762;2023-03-13T08:46:04;5.33;;;3.20;;
23702;SDS011;12030;50.376;8.762;2023-03-13T08:48:29;4.80;;;3.47;;
23702;SDS011;12030;50.376;8.762;2023-03-13T08:51:02;6.13;;;3.57;;
23702;SDS011;12030;50.376;8.762;2023-03-13T08:53:29;3.40;;;3.10;;
23702;SDS011;12030;50.376;8.762;2023-03-13T08:55:55;5.20;;;3.10;;
23702;SDS011;12030;50.376;8.762;2023-03-13T08:58:20;3.50;;;3.20;;
23702;SDS011;12030;50.376;8.762;2023-03-13T09:00:46;3.13;;;2.77;;
23702;SDS011;12030;50.376;8.762;2023-03-13T09:03:11;2.50;;;2.30;;
23702;SDS011;12030;50.376;8.762;2023-03-13T09:05:37;2.60;;;2.40;;
23702;SDS011;12030;50.376;8.762;2023-03-13T09:08:03;3.03;;;2.30;;
23702;SDS011;12030;50.376;8.762;2023-03-13T09:10:29;3.23;;;2.47;;
23702;SDS011;12030;50.376;8.762;2023-03-13T09:12:57;3.00;;;2.10;;
23702;SDS011;12030;50.376;8.762;2023-03-13T09:15:22;2.80;;;2.33;;
23702;SDS011;12030;50.376;8.762;2023-03-13T09:17:48;4.17;;;2.03;;
23702;SDS011;12030;50.376;8.762;2023-03-13T09:20:14;2.37;;;2.17;;
23702;SDS011;12030;50.376;8.762;2023-03-13T09:22:39;3.60;;;1.60;;
23702;SDS011;12030;50.376;8.762;2023-03-13T09:25:05;2.87;;;2.00;;
23702;SDS011;12030;50.376;8.762;2023-03-13T09:27:31;3.17;;;1.97;;
23702;SDS011;12030;50.376;8.762;2023-03-13T09:29:56;2.47;;;1.80;;
23702;SDS011;12030;50.376;8.762;2023-03-13T09:32:21;4.83;;;1.83;;
23702;SDS011;12030;50.376;8.762;2023-03-13T09:34:47;2.57;;;2.10;;
23702;SDS011;12030;50.376;8.762;2023-03-13T09:37:13;3.73;;;1.97;;
23702;SDS011;12030;50.376;8.762;2023-03-13T09:39:38;3.10;;;1.90;;
23702;SDS011;12030;50.376;8.762;2023-03-13T09:44:39;3.73;;;1.70;;
23702;SDS011;12030;50.376;8.762;2023-03-13T09:47:28;2.97;;;1.80;;
23702;SDS011;12030;50.376;8.762;2023-03-13T09:50:14;3.77;;;1.87;;
23702;SDS011;12030;50.376;8.762;2023-03-13T09:52:48;2.80;;;1.70;;
23702;SDS011;12030;50.376;8.762;2023-03-13T09:55:19;3.47;;;1.70;;
23702;SDS011;12030;50.376;8.762;2023-03-13T09:58:15;2.10;;;1.63;;
23702;SDS011;12030;50.376;8.762;2023-03-13T10:00:53;6.27;;;2.57;;
23702;SDS011;12030;50.376;8.762;2023-03-13T10:03:25;3.27;;;2.13;;
23702;SDS011;12030;50.376;8.762;2023-03-13T10:05:55;2.37;;;1.57;;
23702;SDS011;12030;50.376;8.762;2023-03-13T10:08:25;3.60;;;1.67;;
23702;SDS011;12030;50.376;8.762;2023-03-13T10:16:43;4.73;;;1.43;;
23702;SDS011;12030;50.376;8.762;2023-03-13T10:19:27;3.37;;;1.60;;
23702;SDS011;12030;50.376;8.762;2023-03-13T10:21:57;2.67;;;1.80;;
23702;SDS011;12030;50.376;8.762;2023-03-13T10:24:35;2.37;;;1.60;;
23702;SDS011;12030;50.376;8.762;2023-03-13T10:27:07;7.73;;;1.67;;
23702;SDS011;12030;50.376;8.762;2023-03-13T10:29:33;2.63;;;1.50;;
23702;SDS011;12030;50.376;8.762;2023-03-13T10:31:59;2.83;;;1.70;;
23702;SDS011;12030;50.376;8.762;2023-03-13T10:34:43;2.43;;;1.60;;
23702;SDS011;12030;50.376;8.762;2023-03-13T10:37:10;3.80;;;1.73;;
23702;SDS011;12030;50.376;8.762;2023-03-13T10:39:38;3.07;;;1.90;;
23702;SDS011;12030;50.376;8.762;2023-03-13T10:42:15;2.30;;;1.50;;
23702;SDS011;12030;50.376;8.762;2023-03-13T10:44:47;3.20;;;1.43;;
23702;SDS011;12030;50.376;8.762;2023-03-13T10:47:14;4.17;;;1.73;;
23702;SDS011;12030;50.376;8.762;2023-03-13T10:49:47;2.33;;;1.53;;
23702;SDS011;12030;50.376;8.762;2023-03-13T10:52:26;3.17;;;1.77;;
23702;SDS011;12030;50.376;8.762;2023-03-13T10:55:11;3.23;;;1.70;;
23702;SDS011;12030;50.376;8.762;2023-03-13T10:57:41;2.07;;;1.60;;
23702;SDS011;12030;50.376;8.762;2023-03-13T11:02:50;3.50;;;2.03;;
23702;SDS011;12030;50.376;8.762;2023-03-13T11:07:52;2.40;;;2.00;;
23702;SDS011;12030;50.376;8.762;2023-03-13T11:10:19;3.67;;;2.17;;
23702;SDS011;12030;50.376;8.762;2023-03-13T11:12:47;2.87;;;1.87;;
23702;SDS011;12030;50.376;8.762;2023-03-13T11:15:16;3.57;;;2.70;;
23702;SDS011;12030;50.376;8.762;2023-03-13T11:17:46;3.53;;;2.20;;
23702;SDS011;12030;50.376;8.762;2023-03-13T11:20:21;2.70;;;1.80;;
23702;SDS011;12030;50.376;8.762;2023-03-13T11:22:54;2.70;;;1.87;;
23702;SDS011;12030;50.376;8.762;2023-03-13T11:25:40;3.17;;;2.10;;
23702;SDS011;12030;50.376;8.762;2023-03-13T11:36:22;2.33;;;1.80;;
23702;SDS011;12030;50.376;8.762;2023-03-13T11:48:03;2.73;;;1.80;;
23702;SDS011;12030;50.376;8.762;2023-03-13T11:50:36;3.37;;;2.20;;
23702;SDS011;12030;50.376;8.762;2023-03-13T12:01:18;2.80;;;2.20;;
23702;SDS011;12030;50.376;8.762;2023-03-13T12:03:54;4.20;;;2.20;;
23702;SDS011;12030;50.376;8.762;2023-03-13T12:06:42;4.63;;;2.27;;
23702;SDS011;12030;50.376;8.762;2023-03-13T12:11:51;4.23;;;2.43;;
23702;SDS011;12030;50.376;8.762;2023-03-13T12:14:38;3.30;;;2.07;;
23702;SDS011;12030;50.376;8.762;2023-03-13T12:17:20;4.90;;;2.50;;
23702;SDS011;12030;50.376;8.762;2023-03-13T12:20:09;4.00;;;2.57;;
23702;SDS011;12030;50.376;8.762;2023-03-13T12:22:54;3.53;;;2.40;;
23702;SDS011;12030;50.376;8.762;2023-03-13T12:25:24;7.10;;;2.67;;
23702;SDS011;12030;50.376;8.762;2023-03-13T12:30:44;4.50;;;2.30;;
23702;SDS011;12030;50.376;8.762;2023-03-13T12:33:25;3.83;;;2.13;;
23702;SDS011;12030;50.376;8.762;2023-03-13T12:36:06;3.57;;;1.97;;
23702;SDS011;12030;50.376;8.762;2023-03-13T12:38:40;2.40;;;2.00;;
23702;SDS011;12030;50.376;8.762;2023-03-13T12:41:19;4.67;;;2.40;;
23702;SDS011;12030;50.376;8.762;2023-03-13T12:43:50;4.90;;;2.23;;
23702;SDS011;12030;50.376;8.762;2023-03-13T12:56:59;2.63;;;2.03;;
23702;SDS011;12030;50.376;8.762;2023-03-13T12:59:27;6.10;;;2.50;;
23702;SDS011;12030;50.376;8.762;2023-03-13T13:02:00;2.33;;;1.87;;
23702;SDS011;12030;50.376;8.762;2023-03-13T13:04:31;3.27;;;2.00;;
23702;SDS011;12030;50.376;8.762;2023-03-13T13:07:06;2.73;;;1.80;;
23702;SDS011;12030;50.376;8.762;2023-03-13T13:12:33;4.50;;;2.03;;
23702;SDS011;12030;50.376;8.762;2023-03-13T13:15:00;4.07;;;2.10;;
23702;SDS011;12030;50.376;8.762;2023-03-13T13:22:50;5.77;;;1.87;;
23702;SDS011;12030;50.376;8.762;2023-03-13T13:32:41;2.83;;;1.60;;
23702;SDS011;12030;50.376;8.762;2023-03-13T13:37:38;2.67;;;1.70;;
23702;SDS011;12030;50.376;8.762;2023-03-13T13:40:25;4.07;;;2.00;;
23702;SDS011;12030;50.376;8.762;2023-03-13T13:42:57;4.83;;;1.80;;
23702;SDS011;12030;50.376;8.762;2023-03-13T13:45:27;3.83;;;1.70;;
23702;SDS011;12030;50.376;8.762;2023-03-13T13:58:56;4.20;;;1.80;;
23702;SDS011;12030;50.376;8.762;2023-03-13T14:01:28;2.50;;;1.60;;
23702;SDS011;12030;50.376;8.762;2023-03-13T14:04:03;2.73;;;1.77;;
23702;SDS011;12030;50.376;8.762;2023-03-13T14:06:48;4.00;;;1.60;;
23702;SDS011;12030;50.376;8.762;2023-03-13T14:11:54;8.40;;;2.23;;
23702;SDS011;12030;50.376;8.762;2023-03-13T14:14:20;2.63;;;1.80;;
23702;SDS011;12030;50.376;8.762;2023-03-13T14:16:47;4.73;;;1.70;;
23702;SDS011;12030;50.376;8.762;2023-03-13T14:19:21;4.43;;;1.70;;
23702;SDS011;12030;50.376;8.762;2023-03-13T14:22:01;4.10;;;1.83;;
23702;SDS011;12030;50.376;8.762;2023-03-13T14:24:28;4.13;;;1.90;;
23702;SDS011;12030;50.376;8.762;2023-03-13T14:26:54;3.37;;;1.77;;
23702;SDS011;12030;50.376;8.762;2023-03-13T14:29:20;3.20;;;1.70;;
23702;SDS011;12030;50.376;8.762;2023-03-13T14:31:54;2.43;;;1.50;;
23702;SDS011;12030;50.376;8.762;2023-03-13T14:34:21;4.77;;;1.90;;
23702;SDS011;12030;50.376;8.762;2023-03-13T14:39:16;2.70;;;1.83;;
23702;SDS011;12030;50.376;8.762;2023-03-13T14:42:00;2.93;;;1.80;;
23702;SDS011;12030;50.376;8.762;2023-03-13T14:44:28;6.57;;;1.80;;
23702;SDS011;12030;50.376;8.762;2023-03-13T14:46:57;6.43;;;2.13;;
23702;SDS011;12030;50.376;8.762;2023-03-13T14:49:24;2.83;;;2.17;;
23702;SDS011;12030;50.376;8.762;2023-03-13T14:52:04;2.67;;;2.03;;
23702;SDS011;12030;50.376;8.762;2023-03-13T14:54:33;3.53;;;1.87;;
23702;SDS011;12030;50.376;8.762;2023-03-13T14:57:04;4.20;;;2.40;;
23702;SDS011;12030;50.376;8.762;2023-03-13T14:59:33;3.23;;;2.20;;
23702;SDS011;12030;50.376;8.762;2023-03-13T15:01:59;4.30;;;2.57;;
23702;SDS011;12030;50.376;8.762;2023-03-13T15:04:47;6.20;;;2.47;;
23702;SDS011;12030;50.376;8.762;2023-03-13T15:07:19;5.57;;;2.77;;
23702;SDS011;12030;50.376;8.762;2023-03-13T15:09:46;9.43;;;3.10;;
23702;SDS011;12030;50.376;8.762;2023-03-13T15:12:14;4.10;;;2.97;;
23702;SDS011;12030;50.376;8.762;2023-03-13T15:14:43;5.00;;;2.87;;
23702;SDS011;12030;50.376;8.762;2023-03-13T15:17:13;4.37;;;2.90;;
23702;SDS011;12030;50.376;8.762;2023-03-13T15:19:39;4.80;;;2.63;;
23702;SDS011;12030;50.376;8.762;2023-03-13T15:22:07;3.63;;;2.50;;
23702;SDS011;12030;50.376;8.762;2023-03-13T15:24:38;4.90;;;2.80;;
23702;SDS011;12030;50.376;8.762;2023-03-13T15:27:08;4.20;;;2.70;;
23702;SDS011;12030;50.376;8.762;2023-03-13T15:29:39;2.90;;;1.87;;
23702;SDS011;12030;50.376;8.762;2023-03-13T15:32:07;4.20;;;2.10;;
23702;SDS011;12030;50.376;8.762;2023-03-13T15:34:38;3.63;;;1.77;;
23702;SDS011;12030;50.376;8.762;2023-03-13T15:37:04;4.30;;;1.97;;
23702;SDS011;12030;50.376;8.762;2023-03-13T15:39:29;4.27;;;1.47;;
23702;SDS011;12030;50.376;8.762;2023-03-13T15:41:55;3.07;;;1.33;;
23702;SDS011;12030;50.376;8.762;2023-03-13T15:44:20;2.17;;;0.90;;
23702;SDS011;12030;50.376;8.762;2023-03-13T15:46:46;2.03;;;1.00;;
23702;SDS011;12030;50.376;8.762;2023-03-13T15:49:12;2.13;;;0.83;;
23702;SDS011;12030;50.376;8.762;2023-03-13T15:51:37;1.43;;;0.93;;
23702;SDS011;12030;50.376;8.762;2023-03-13T15:54:03;1.50;;;1.20;;
23702;SDS011;12030;50.376;8.762;2023-03-13T15:56:29;1.53;;;0.80;;
23702;SDS011;12030;50.376;8.762;2023-03-13T15:59:00;3.00;;;0.97;;
23702;SDS011;12030;50.376;8.762;2023-03-13T16:01:25;1.53;;;0.67;;
23702;SDS011;12030;50.376;8.762;2023-03-13T16:03:52;2.00;;;1.37;;
23702;SDS011;12030;50.376;8.762;2023-03-13T16:06:18;2.10;;;0.80;;
23702;SDS011;12030;50.376;8.762;2023-03-13T16:08:52;2.33;;;0.80;;
23702;SDS011;12030;50.376;8.762;2023-03-13T16:11:17;0.70;;;0.50;;
23702;SDS011;12030;50.376;8.762;2023-03-13T16:13:43;2.00;;;1.27;;
23702;SDS011;12030;50.376;8.762;2023-03-13T16:16:20;1.27;;;0.57;;
23702;SDS011;12030;50.376;8.762;2023-03-13T16:18:47;3.63;;;0.80;;
23702;SDS011;12030;50.376;8.762;2023-03-13T16:21:16;0.73;;;0.63;;
23702;SDS011;12030;50.376;8.762;2023-03-13T16:23:46;1.13;;;0.50;;
23702;SDS011;12030;50.376;8.762;2023-03-13T16:26:22;1.00;;;0.50;;